Página principal
METAR-TAF:

METAR-TAF

Aeroportos :

Aeroporto de Cairns

Cairns, Austrália

latitude: 16-53S, longitude: 145-45E, altura: 3 m

Observação actual do tempo

O boletim foi feito há 29 minutos, às 22:00 UTC
Vento 10 kt de nordeste
Temperatura 27°C
Humidade 66%
Pressão 1014 hPa
Visibilidade 10 km ou mais
Poucas nuvensa uma altura de 3000 ft

METAR: YBCS 152200Z AUTO 14005KT 9999 // NCD 27/20 Q1014 RF00.0/000.0 FM2330 05010KT 9999 FEW030

Hora: 08:29 (22:29 UTC)

Previsão

O boletim foi feito há 5 horas e 24 minutos, às 17:05 UTC
Previsão válida de 15 às 18 UTC a 16 às 18 UTC
Vento 4 kt de sul
Visibilidade 10 km ou mais
Nuvens dispersasa uma altura de 2500 ft
A partir de 15 às 2300 UTC
Vento 10 kt de nordeste
Visibilidade 10 km ou mais
Poucas nuvensa uma altura de 3000 ft
A partir de 16 às 0900 UTC
Vento 5 kt de sul
Visibilidade 10 km ou mais
Nuvens dispersasa uma altura de 2500 ft

TAF: YBCS 151705Z 1518/1618 17004KT 9999 SCT025 FM152300 05010KT 9999 FEW030 FM160900 17005KT 9999 SCT025

Observações e previsões do tempo de mais de 4000 aeroportos (mensagens METAR e TAF).

As estações disponíveis são os pontos amarelos e vermelhos sobre o mapa.

Mova o rato sobre o mapa para ver o nome da estação.

Depois clique no ponto para visualizar as observações e previsões meteorológicas.

Para alterar o mapa : clique nos botões verdes com uma cruz preta para aumentar o zoom; no botão verde com uma pitada de zoom; ou nas setas verdes para mapas adjacentes.


METAR-TAF: